Time;durP1;ratioP1;P1;durP2;ratioP2;P2;SDS_P1;SDS_P2;PMS_P1;PMS_P2;Temp;Humidity;BMP_temperature;BMP_pressure;BME280_temperature;BME280_humidity;BME280_pressure;Samples;Min_cycle;Max_cycle;Signal;HPM_P1;HPM_P2
2022/05/24 00:00:43;;;;;;;1.23;1.20;;;;;;;;;;4985919;28;20206;-63
2022/05/24 00:03:12;;;;;;;1.30;1.02;;;;;;;;;;4990647;28;20632;-63
2022/05/24 00:05:39;;;;;;;0.93;0.93;;;;;;;;;;4978141;28;20237;-63
2022/05/24 00:08:07;;;;;;;1.55;1.08;;;;;;;;;;4990230;28;20205;-63
2022/05/24 00:10:35;;;;;;;1.00;1.00;;;;;;;;;;4990623;28;20734;-63
2022/05/24 00:13:02;;;;;;;2.20;1.13;;;;;;;;;;4984887;28;20201;-63
2022/05/24 00:15:30;;;;;;;2.45;1.38;;;;;;;;;;4990679;28;20214;-63
2022/05/24 00:17:59;;;;;;;1.08;1.08;;;;;;;;;;4990341;28;20201;-63
2022/05/24 00:20:28;;;;;;;1.23;1.23;;;;;;;;;;4990278;28;20206;-63
2022/05/24 00:22:56;;;;;;;1.00;1.00;;;;;;;;;;4989708;28;20682;-63
2022/05/24 00:25:23;;;;;;;1.05;1.05;;;;;;;;;;4989911;28;20213;-63
2022/05/24 00:27:50;;;;;;;1.10;1.10;;;;;;;;;;4990048;28;20252;-63
2022/05/24 00:30:17;;;;;;;1.15;1.15;;;;;;;;;;4989730;28;20229;-63
2022/05/24 00:32:44;;;;;;;1.52;1.42;;;;;;;;;;4989958;28;20209;-63
2022/05/24 00:35:12;;;;;;;2.85;1.17;;;;;;;;;;4989458;28;20271;-63
2022/05/24 00:37:41;;;;;;;2.40;1.02;;;;;;;;;;4989416;28;20214;-63
2022/05/24 00:40:09;;;;;;;1.10;1.10;;;;;;;;;;4989082;28;20221;-62
2022/05/24 00:42:37;;;;;;;1.33;1.33;;;;;;;;;;4987061;28;20212;-62
2022/05/24 00:45:07;;;;;;;1.23;1.08;;;;;;;;;;4989209;28;20280;-61
2022/05/24 00:47:35;;;;;;;1.00;1.00;;;;;;;;;;4989424;28;20210;-62
2022/05/24 00:50:05;;;;;;;1.10;1.10;;;;;;;;;;4989060;28;20264;-63
2022/05/24 00:52:35;;;;;;;0.80;0.80;;;;;;;;;;4989550;28;20288;-63
2022/05/24 00:55:04;;;;;;;1.40;1.13;;;;;;;;;;4989185;28;20668;-63
2022/05/24 00:57:34;;;;;;;2.25;1.15;;;;;;;;;;4989290;28;20651;-63
2022/05/24 01:00:04;;;;;;;0.93;0.93;;;;;;;;;;4989130;28;20206;-63
2022/05/24 01:02:31;;;;;;;0.88;0.88;;;;;;;;;;4989129;28;20603;-63
2022/05/24 01:04:58;;;;;;;1.35;1.25;;;;;;;;;;4989409;28;20214;-62
2022/05/24 01:07:25;;;;;;;1.23;1.23;;;;;;;;;;4988047;28;20213;-63
2022/05/24 01:09:54;;;;;;;1.33;1.20;;;;;;;;;;4979549;28;20237;-63
2022/05/24 01:12:27;;;;;;;1.05;1.05;;;;;;;;;;4988230;28;20209;-63
2022/05/24 01:14:56;;;;;;;0.90;0.90;;;;;;;;;;4988962;28;20206;-63
2022/05/24 01:17:23;;;;;;;1.08;1.08;;;;;;;;;;4989109;28;20210;-63
2022/05/24 01:19:50;;;;;;;1.08;1.02;;;;;;;;;;4989330;28;20649;-63
2022/05/24 01:22:32;;;;;;;1.00;1.00;;;;;;;;;;4976564;28;20255;-63
2022/05/24 01:25:01;;;;;;;1.50;1.40;;;;;;;;;;4980540;28;20206;-62
2022/05/24 01:27:30;;;;;;;2.60;1.10;;;;;;;;;;4984584;28;20233;-63
2022/05/24 01:29:57;;;;;;;1.17;1.08;;;;;;;;;;4983440;28;20727;-63
2022/05/24 01:37:54;;;;;;;1.25;1.15;;;;;;;;;;4988771;28;20314;-63
2022/05/24 01:40:21;;;;;;;1.67;1.58;;;;;;;;;;4988913;28;20202;-63
2022/05/24 01:42:49;;;;;;;1.40;1.40;;;;;;;;;;4987166;28;20202;-63
2022/05/24 01:45:18;;;;;;;1.00;1.00;;;;;;;;;;4982688;28;20198;-63
2022/05/24 01:47:48;;;;;;;1.30;1.30;;;;;;;;;;4988174;28;20260;-63
2022/05/24 01:50:17;;;;;;;1.20;1.20;;;;;;;;;;4989268;28;20237;-63
2022/05/24 01:52:48;;;;;;;1.33;1.33;;;;;;;;;;4988514;28;20209;-63
2022/05/24 01:55:17;;;;;;;1.23;1.23;;;;;;;;;;4988590;28;20260;-63
2022/05/24 01:57:46;;;;;;;1.13;1.13;;;;;;;;;;4988308;28;20701;-62
2022/05/24 02:00:17;;;;;;;1.30;1.30;;;;;;;;;;4988095;28;20209;-62
2022/05/24 02:02:44;;;;;;;1.02;1.02;;;;;;;;;;4984866;28;20213;-63
2022/05/24 02:05:12;;;;;;;1.40;1.27;;;;;;;;;;4988139;28;20224;-63
2022/05/24 02:07:40;;;;;;;2.05;1.40;;;;;;;;;;4988125;28;20261;-63
2022/05/24 02:10:08;;;;;;;1.30;1.30;;;;;;;;;;4988136;28;20327;-63
2022/05/24 02:12:38;;;;;;;1.42;1.42;;;;;;;;;;4988804;28;20269;-63
2022/05/24 02:15:07;;;;;;;1.40;1.40;;;;;;;;;;4988681;28;20209;-62
2022/05/24 02:17:39;;;;;;;1.23;1.23;;;;;;;;;;4986813;28;20202;-63
2022/05/24 02:20:09;;;;;;;1.50;1.50;;;;;;;;;;4987927;28;20790;-63
2022/05/24 02:22:38;;;;;;;1.45;1.42;;;;;;;;;;4988093;28;20210;-63
2022/05/24 02:25:06;;;;;;;1.48;1.48;;;;;;;;;;4988615;28;20217;-62
2022/05/24 02:27:39;;;;;;;1.35;1.30;;;;;;;;;;4987950;28;20233;-63
2022/05/24 02:30:07;;;;;;;1.90;1.80;;;;;;;;;;4985674;28;20774;-62
2022/05/24 02:32:35;;;;;;;1.52;1.42;;;;;;;;;;4987158;28;20268;-63
2022/05/24 02:35:02;;;;;;;1.65;1.55;;;;;;;;;;4988406;28;20214;-62
2022/05/24 02:37:29;;;;;;;1.75;1.75;;;;;;;;;;4987835;28;20280;-63
2022/05/24 02:42:41;;;;;;;2.20;2.10;;;;;;;;;;4988828;28;20208;-63
2022/05/24 02:45:08;;;;;;;2.40;2.30;;;;;;;;;;4987946;28;20214;-63
2022/05/24 02:47:37;;;;;;;2.00;1.90;;;;;;;;;;4990540;28;20224;-63
2022/05/24 02:50:05;;;;;;;2.33;2.22;;;;;;;;;;4989529;28;20321;-63
2022/05/24 02:52:32;;;;;;;3.15;2.13;;;;;;;;;;4990397;28;20202;-63
2022/05/24 02:54:59;;;;;;;2.42;2.33;;;;;;;;;;4990833;28;20210;-63
2022/05/24 02:57:26;;;;;;;2.80;2.70;;;;;;;;;;4991213;28;20213;-63
2022/05/24 02:59:53;;;;;;;2.42;2.33;;;;;;;;;;4990236;28;20205;-63
2022/05/24 03:02:20;;;;;;;2.90;2.70;;;;;;;;;;4986703;28;20201;-64
2022/05/24 03:04:48;;;;;;;2.90;2.80;;;;;;;;;;4989605;28;20202;-63
2022/05/24 03:10:00;;;;;;;2.45;2.35;;;;;;;;;;4990040;28;20288;-62
2022/05/24 03:15:12;;;;;;;2.45;2.30;;;;;;;;;;4989199;28;20200;-62
2022/05/24 03:17:39;;;;;;;2.60;2.45;;;;;;;;;;4986975;28;20746;-63
2022/05/24 03:20:08;;;;;;;2.67;2.58;;;;;;;;;;4989002;28;20292;-63
2022/05/24 03:22:35;;;;;;;2.55;2.45;;;;;;;;;;4987158;28;20371;-63
2022/05/24 03:25:02;;;;;;;2.65;2.58;;;;;;;;;;4988896;28;20686;-63
2022/05/24 03:27:29;;;;;;;2.80;2.70;;;;;;;;;;4985668;28;20233;-62
2022/05/24 03:29:56;;;;;;;2.72;2.63;;;;;;;;;;4988236;28;20206;-63
2022/05/24 03:32:23;;;;;;;2.65;2.55;;;;;;;;;;4984905;28;20221;-63
2022/05/24 03:34:50;;;;;;;3.58;3.08;;;;;;;;;;4988480;28;20202;-63
2022/05/24 03:37:19;;;;;;;3.50;3.20;;;;;;;;;;4987921;28;20256;-63
2022/05/24 03:39:46;;;;;;;3.00;2.90;;;;;;;;;;4986266;28;20210;-63
2022/05/24 03:42:13;;;;;;;3.00;2.80;;;;;;;;;;4986687;28;20216;-63
2022/05/24 03:44:40;;;;;;;3.72;2.88;;;;;;;;;;4987967;28;20208;-63
2022/05/24 03:47:07;;;;;;;4.20;3.15;;;;;;;;;;4988290;28;20944;-64
2022/05/24 03:49:34;;;;;;;2.60;2.50;;;;;;;;;;4988252;28;20205;-61
2022/05/24 03:52:01;;;;;;;3.10;2.85;;;;;;;;;;4986936;28;20221;-62
2022/05/24 03:54:30;;;;;;;3.13;3.03;;;;;;;;;;4987932;28;20347;-61
2022/05/24 03:59:41;;;;;;;2.80;2.70;;;;;;;;;;4987957;28;20205;-61
2022/05/24 04:02:08;;;;;;;3.00;2.90;;;;;;;;;;4988350;28;20296;-61
2022/05/24 04:04:35;;;;;;;2.90;2.80;;;;;;;;;;4988060;28;20205;-62
2022/05/24 04:07:03;;;;;;;3.95;3.10;;;;;;;;;;4988780;28;20213;-62
2022/05/24 04:09:33;;;;;;;3.10;3.00;;;;;;;;;;4988037;28;20268;-62
2022/05/24 04:12:00;;;;;;;3.17;2.97;;;;;;;;;;4988341;28;20597;-62
2022/05/24 04:14:27;;;;;;;3.10;2.90;;;;;;;;;;4983411;28;20245;-62
2022/05/24 04:16:55;;;;;;;3.10;2.92;;;;;;;;;;4988191;28;20206;-62
2022/05/24 04:19:22;;;;;;;2.90;2.80;;;;;;;;;;4988395;28;20268;-62
2022/05/24 04:21:49;;;;;;;3.20;3.00;;;;;;;;;;4988389;28;20198;-62
2022/05/24 04:24:16;;;;;;;3.42;3.22;;;;;;;;;;4988535;28;20581;-62
2022/05/24 04:26:44;;;;;;;2.90;2.80;;;;;;;;;;4987598;28;20259;-61
2022/05/24 04:29:12;;;;;;;2.88;2.70;;;;;;;;;;4985308;28;20295;-62
2022/05/24 04:31:39;;;;;;;3.15;2.95;;;;;;;;;;4988410;28;20803;-62
2022/05/24 04:34:06;;;;;;;4.88;3.15;;;;;;;;;;4988149;28;20198;-62
2022/05/24 04:36:33;;;;;;;3.20;2.90;;;;;;;;;;4988187;28;20812;-62
2022/05/24 04:39:00;;;;;;;3.25;3.10;;;;;;;;;;4987975;28;20208;-61
2022/05/24 04:44:13;;;;;;;3.42;3.13;;;;;;;;;;4988366;28;20264;-61
2022/05/24 04:49:25;;;;;;;3.50;2.90;;;;;;;;;;4986316;28;20204;-61
2022/05/24 04:51:54;;;;;;;3.53;3.33;;;;;;;;;;4977472;28;20226;-61
2022/05/24 04:54:21;;;;;;;3.10;3.00;;;;;;;;;;4987388;28;20206;-61
2022/05/24 04:56:48;;;;;;;3.00;2.75;;;;;;;;;;4986812;28;20235;-61
2022/05/24 04:59:17;;;;;;;2.95;2.75;;;;;;;;;;4987622;28;20963;-61
2022/05/24 05:01:44;;;;;;;2.63;2.50;;;;;;;;;;4977603;28;20219;-62
2022/05/24 05:04:11;;;;;;;2.67;2.47;;;;;;;;;;4988017;28;20210;-61
2022/05/24 05:06:39;;;;;;;2.75;2.55;;;;;;;;;;4988403;28;20264;-61
2022/05/24 05:09:06;;;;;;;2.75;2.20;;;;;;;;;;4987316;28;20217;-61
2022/05/24 05:11:41;;;;;;;2.92;2.72;;;;;;;;;;4987556;28;20961;-61
2022/05/24 05:14:09;;;;;;;2.63;2.42;;;;;;;;;;4988926;28;20629;-61
2022/05/24 05:16:38;;;;;;;2.30;2.20;;;;;;;;;;4988186;28;20239;-63
2022/05/24 05:19:05;;;;;;;2.10;2.10;;;;;;;;;;4988769;28;20206;-61
2022/05/24 05:21:33;;;;;;;2.20;2.10;;;;;;;;;;4988315;28;20744;-61
2022/05/24 05:24:01;;;;;;;1.70;1.70;;;;;;;;;;4988500;28;20240;-61
2022/05/24 05:26:28;;;;;;;4.50;2.13;;;;;;;;;;4987790;28;20229;-61
2022/05/24 05:28:55;;;;;;;1.27;1.27;;;;;;;;;;4988313;28;20304;-62
2022/05/24 05:31:23;;;;;;;1.60;1.60;;;;;;;;;;4987929;28;21016;-61
2022/05/24 05:33:51;;;;;;;1.60;1.50;;;;;;;;;;4983034;28;20205;-61
2022/05/24 05:36:18;;;;;;;1.23;1.23;;;;;;;;;;4981720;28;20209;-61
2022/05/24 05:38:46;;;;;;;1.60;1.50;;;;;;;;;;4988545;28;20218;-61
2022/05/24 05:41:14;;;;;;;1.10;1.10;;;;;;;;;;4987514;28;20264;-63
2022/05/24 05:43:41;;;;;;;1.35;1.25;;;;;;;;;;4979117;28;20301;-61
2022/05/24 05:46:09;;;;;;;1.30;1.30;;;;;;;;;;4982723;28;20213;-61
2022/05/24 05:48:36;;;;;;;1.27;1.25;;;;;;;;;;4987190;28;20210;-61
2022/05/24 05:51:05;;;;;;;1.40;1.40;;;;;;;;;;4986982;28;20237;-62
2022/05/24 05:53:32;;;;;;;1.05;1.05;;;;;;;;;;4987925;28;20221;-62
2022/05/24 05:56:00;;;;;;;1.15;1.15;;;;;;;;;;4987822;28;20987;-62
2022/05/24 05:58:27;;;;;;;1.20;1.20;;;;;;;;;;4988122;28;20218;-62
2022/05/24 06:00:54;;;;;;;1.33;1.23;;;;;;;;;;4987487;28;20623;-63
2022/05/24 06:03:21;;;;;;;1.58;1.30;;;;;;;;;;4986343;28;20210;-61
2022/05/24 06:05:49;;;;;;;1.20;1.20;;;;;;;;;;4976954;28;20214;-62
2022/05/24 06:08:17;;;;;;;1.00;1.00;;;;;;;;;;4988046;28;20879;-63
2022/05/24 06:10:44;;;;;;;2.53;1.15;;;;;;;;;;4976494;28;20622;-62
2022/05/24 06:13:12;;;;;;;0.60;0.60;;;;;;;;;;4976282;28;20252;-62
2022/05/24 06:15:39;;;;;;;0.80;0.80;;;;;;;;;;4974782;28;20206;-62
2022/05/24 06:18:06;;;;;;;0.60;0.60;;;;;;;;;;4987209;28;20359;-63
2022/05/24 06:20:34;;;;;;;0.55;0.50;;;;;;;;;;4988689;28;20565;-63
2022/05/24 06:23:01;;;;;;;0.60;0.60;;;;;;;;;;4979321;28;20202;-63
2022/05/24 06:25:30;;;;;;;1.55;0.70;;;;;;;;;;4991874;28;20217;-62
2022/05/24 06:27:57;;;;;;;0.45;0.45;;;;;;;;;;4990975;28;20328;-62
2022/05/24 06:30:25;;;;;;;0.40;0.40;;;;;;;;;;4991378;28;20220;-62
2022/05/24 06:32:52;;;;;;;0.40;0.40;;;;;;;;;;4991480;28;20229;-62
2022/05/24 06:35:20;;;;;;;0.38;0.38;;;;;;;;;;4991424;28;20272;-62
2022/05/24 06:37:48;;;;;;;0.25;0.25;;;;;;;;;;4986875;28;20268;-61
2022/05/24 06:40:17;;;;;;;0.30;0.30;;;;;;;;;;4980858;28;20749;-61
2022/05/24 06:42:45;;;;;;;0.30;0.30;;;;;;;;;;4972186;28;20260;-62
2022/05/24 06:45:12;;;;;;;0.30;0.30;;;;;;;;;;4989224;28;20210;-62
2022/05/24 06:47:40;;;;;;;0.20;0.20;;;;;;;;;;4990801;28;20222;-62
2022/05/24 06:50:07;;;;;;;0.30;0.30;;;;;;;;;;4990791;28;20214;-62
2022/05/24 06:52:34;;;;;;;0.30;0.30;;;;;;;;;;4991025;28;20276;-62
2022/05/24 06:55:01;;;;;;;0.20;0.20;;;;;;;;;;4991016;28;20213;-62
2022/05/24 06:57:28;;;;;;;0.35;0.30;;;;;;;;;;4987558;28;20213;-62
2022/05/24 07:03:00;;;;;;;0.20;0.20;;;;;;;;;;4911330;29;20355;-62
2022/05/24 07:05:27;;;;;;;0.32;0.32;;;;;;;;;;4975363;28;20224;-60
2022/05/24 07:07:54;;;;;;;0.20;0.20;;;;;;;;;;4990819;28;20291;-61
2022/05/24 07:10:21;;;;;;;0.30;0.30;;;;;;;;;;4990526;28;20217;-61
2022/05/24 07:12:48;;;;;;;0.30;0.30;;;;;;;;;;4986895;28;20225;-62
2022/05/24 07:15:17;;;;;;;0.20;0.20;;;;;;;;;;4980137;28;20206;-61
2022/05/24 07:17:44;;;;;;;0.20;0.20;;;;;;;;;;4985420;28;20264;-62
2022/05/24 07:20:11;;;;;;;0.20;0.20;;;;;;;;;;4986130;28;20209;-61
2022/05/24 07:22:39;;;;;;;0.28;0.20;;;;;;;;;;4990165;28;20214;-61
2022/05/24 07:25:07;;;;;;;0.30;0.30;;;;;;;;;;4986362;28;20229;-61
2022/05/24 07:27:34;;;;;;;0.20;0.20;;;;;;;;;;4989125;28;20325;-61
2022/05/24 07:30:01;;;;;;;0.28;0.28;;;;;;;;;;4989690;28;20206;-62
2022/05/24 07:32:31;;;;;;;0.20;0.20;;;;;;;;;;4989024;28;20296;-61
2022/05/24 07:34:59;;;;;;;0.20;0.20;;;;;;;;;;4988724;28;20213;-61
2022/05/24 07:37:27;;;;;;;0.30;0.30;;;;;;;;;;4982818;28;20210;-61
2022/05/24 07:45:48;;;;;;;0.28;0.28;;;;;;;;;;4989358;28;20218;-62
2022/05/24 07:48:12;;;;;;;0.20;0.20;;;;;;;;;;4984305;28;20338;-61
2022/05/24 07:50:39;;;;;;;0.13;0.13;;;;;;;;;;4970084;28;20213;-61
2022/05/24 07:53:06;;;;;;;1.45;0.38;;;;;;;;;;4981775;28;20660;-61
2022/05/24 07:55:33;;;;;;;0.35;0.35;;;;;;;;;;4980138;28;20215;-61
2022/05/24 07:58:00;;;;;;;0.20;0.20;;;;;;;;;;4989349;28;20563;-61
2022/05/24 08:00:28;;;;;;;0.13;0.13;;;;;;;;;;4989379;28;20593;-61
2022/05/24 08:02:55;;;;;;;0.20;0.20;;;;;;;;;;4989233;28;20213;-61
2022/05/24 08:05:23;;;;;;;0.20;0.10;;;;;;;;;;4987262;28;20281;-61
2022/05/24 08:07:51;;;;;;;0.35;0.20;;;;;;;;;;4988902;28;20214;-61
2022/05/24 08:10:18;;;;;;;0.52;0.30;;;;;;;;;;4989287;28;20305;-61
2022/05/24 08:12:45;;;;;;;0.20;0.20;;;;;;;;;;4989239;28;20229;-60
2022/05/24 08:15:13;;;;;;;0.20;0.20;;;;;;;;;;4984363;28;20213;-61
2022/05/24 08:17:40;;;;;;;0.10;0.10;;;;;;;;;;4975204;28;20715;-61
2022/05/24 08:20:09;;;;;;;0.25;0.25;;;;;;;;;;4981826;28;20221;-60
2022/05/24 08:22:38;;;;;;;1.45;0.10;;;;;;;;;;4988661;28;20205;-61
2022/05/24 08:25:06;;;;;;;0.65;0.30;;;;;;;;;;4988585;28;20672;-61
2022/05/24 08:27:33;;;;;;;0.30;0.10;;;;;;;;;;4985746;28;20236;-61
2022/05/24 08:30:01;;;;;;;0.10;0.10;;;;;;;;;;4976418;28;20564;-60
2022/05/24 08:32:28;;;;;;;0.17;0.15;;;;;;;;;;4989086;28;20229;-60
2022/05/24 08:34:55;;;;;;;0.28;0.10;;;;;;;;;;4986957;28;20216;-60
2022/05/24 08:37:22;;;;;;;0.43;0.10;;;;;;;;;;4988757;28;20213;-61
2022/05/24 08:39:50;;;;;;;3.20;0.20;;;;;;;;;;4988987;28;20206;-61
2022/05/24 08:42:23;;;;;;;0.10;0.10;;;;;;;;;;4988845;28;20206;-60
2022/05/24 08:50:26;;;;;;;0.10;0.10;;;;;;;;;;4987908;28;20686;-61
2022/05/24 08:52:56;;;;;;;0.20;0.20;;;;;;;;;;4982757;28;20642;-60
2022/05/24 08:55:27;;;;;;;0.20;0.20;;;;;;;;;;4987175;28;20232;-59
2022/05/24 08:57:55;;;;;;;0.10;0.10;;;;;;;;;;4988358;28;20220;-62
2022/05/24 09:00:24;;;;;;;0.20;0.20;;;;;;;;;;4988201;28;20213;-61
2022/05/24 09:02:51;;;;;;;0.10;0.10;;;;;;;;;;4985850;28;20313;-62
2022/05/24 09:05:20;;;;;;;0.10;0.10;;;;;;;;;;4979211;28;20252;-62
2022/05/24 09:07:51;;;;;;;0.10;0.10;;;;;;;;;;4988831;28;20218;-61
2022/05/24 09:10:21;;;;;;;0.17;0.17;;;;;;;;;;4986609;28;20210;-61
2022/05/24 09:12:59;;;;;;;0.20;0.10;;;;;;;;;;4988478;28;20300;-61
2022/05/24 09:15:28;;;;;;;0.30;0.10;;;;;;;;;;4988314;28;20361;-61
2022/05/24 09:18:03;;;;;;;0.10;0.10;;;;;;;;;;4988221;28;20214;-61
2022/05/24 09:20:33;;;;;;;1.27;0.20;;;;;;;;;;4988409;28;20267;-61
2022/05/24 09:23:02;;;;;;;0.10;0.10;;;;;;;;;;4988373;28;20755;-61
2022/05/24 09:25:29;;;;;;;0.20;0.20;;;;;;;;;;4988125;28;20218;-61
2022/05/24 09:27:57;;;;;;;0.57;0.20;;;;;;;;;;4987864;28;20480;-63
2022/05/24 09:30:27;;;;;;;0.65;0.20;;;;;;;;;;4987681;28;20245;-60
2022/05/24 09:32:54;;;;;;;0.03;0.03;;;;;;;;;;4987892;28;20240;-61
2022/05/24 09:35:23;;;;;;;0.10;0.10;;;;;;;;;;4987594;28;20210;-64
2022/05/24 09:38:08;;;;;;;0.20;0.20;;;;;;;;;;4988040;28;20210;-61
2022/05/24 09:40:45;;;;;;;1.25;0.10;;;;;;;;;;4987901;28;20247;-61
2022/05/24 09:43:18;;;;;;;0.13;0.13;;;;;;;;;;4988435;28;20920;-61
2022/05/24 09:45:50;;;;;;;0.10;0.10;;;;;;;;;;4988167;28;20241;-60
2022/05/24 09:48:22;;;;;;;1.63;0.20;;;;;;;;;;4987797;28;20209;-60
2022/05/24 09:50:51;;;;;;;0.10;0.10;;;;;;;;;;4987350;28;20264;-60
2022/05/24 09:53:19;;;;;;;0.17;0.17;;;;;;;;;;4987235;28;20324;-60
2022/05/24 09:55:48;;;;;;;0.38;0.10;;;;;;;;;;4988045;28;20201;-60
2022/05/24 09:58:28;;;;;;;0.25;0.25;;;;;;;;;;4989682;28;20221;-62
2022/05/24 10:00:57;;;;;;;0.28;0.10;;;;;;;;;;4991492;28;20668;-60
2022/05/24 10:03:26;;;;;;;0.10;0.10;;;;;;;;;;4990080;28;20205;-63
2022/05/24 10:05:57;;;;;;;0.10;0.10;;;;;;;;;;4991058;28;20301;-61
2022/05/24 10:08:24;;;;;;;0.20;0.20;;;;;;;;;;4990919;28;20209;-60
2022/05/24 10:10:56;;;;;;;0.20;0.20;;;;;;;;;;4991549;28;20205;-64
2022/05/24 10:13:30;;;;;;;0.17;0.17;;;;;;;;;;4982995;28;20241;-62
2022/05/24 10:16:02;;;;;;;0.38;0.13;;;;;;;;;;4981143;28;20206;-62
2022/05/24 10:18:35;;;;;;;0.10;0.10;;;;;;;;;;4990616;28;20567;-61
2022/05/24 10:21:08;;;;;;;3.63;0.20;;;;;;;;;;4980591;28;20652;-62
2022/05/24 10:23:40;;;;;;;0.08;0.08;;;;;;;;;;4991609;28;20302;-62
2022/05/24 10:26:12;;;;;;;0.45;0.25;;;;;;;;;;4991231;28;20340;-61
2022/05/24 10:28:42;;;;;;;0.17;0.17;;;;;;;;;;4990083;28;20893;-61
2022/05/24 10:31:16;;;;;;;0.30;0.30;;;;;;;;;;4990753;28;20214;-61
2022/05/24 10:39:28;;;;;;;0.20;0.20;;;;;;;;;;4975118;28;20245;-60
2022/05/24 10:42:00;;;;;;;0.43;0.17;;;;;;;;;;4975505;28;20617;-62
2022/05/24 10:44:36;;;;;;;1.27;0.20;;;;;;;;;;4991115;28;20565;-61
2022/05/24 10:47:08;;;;;;;0.40;0.17;;;;;;;;;;4991062;28;20213;-61
2022/05/24 10:49:40;;;;;;;0.13;0.13;;;;;;;;;;4989299;28;20236;-61
2022/05/24 10:52:10;;;;;;;0.20;0.20;;;;;;;;;;4978679;28;20748;-61
2022/05/24 10:54:41;;;;;;;0.20;0.20;;;;;;;;;;4991350;28;20743;-61
2022/05/24 10:57:10;;;;;;;0.20;0.10;;;;;;;;;;4984051;28;20221;-61
2022/05/24 10:59:43;;;;;;;0.20;0.20;;;;;;;;;;4986463;28;20709;-62
2022/05/24 11:02:15;;;;;;;0.90;0.20;;;;;;;;;;4991175;28;20214;-59
2022/05/24 11:04:44;;;;;;;0.13;0.13;;;;;;;;;;4991371;28;20298;-61
2022/05/24 11:07:14;;;;;;;0.38;0.28;;;;;;;;;;4990492;28;20210;-61
2022/05/24 11:09:43;;;;;;;0.90;0.20;;;;;;;;;;4990886;28;20546;-61
2022/05/24 11:12:13;;;;;;;0.20;0.20;;;;;;;;;;4991197;28;20214;-61
2022/05/24 11:14:42;;;;;;;0.70;0.20;;;;;;;;;;4986805;28;20226;-61
2022/05/24 11:17:10;;;;;;;0.30;0.30;;;;;;;;;;4974096;28;20256;-61
2022/05/24 11:19:40;;;;;;;0.20;0.20;;;;;;;;;;4976228;28;20233;-61
2022/05/24 11:22:10;;;;;;;0.20;0.20;;;;;;;;;;4985633;28;20219;-62
2022/05/24 11:24:43;;;;;;;0.10;0.10;;;;;;;;;;4980910;28;20621;-60
2022/05/24 11:27:12;;;;;;;0.32;0.22;;;;;;;;;;4980631;28;20258;-61
2022/05/24 11:29:45;;;;;;;0.30;0.30;;;;;;;;;;4980608;28;20712;-59
2022/05/24 11:32:12;;;;;;;0.20;0.20;;;;;;;;;;4978665;28;20679;-59
2022/05/24 11:34:42;;;;;;;0.30;0.30;;;;;;;;;;4980504;28;20281;-61
2022/05/24 11:37:14;;;;;;;0.10;0.10;;;;;;;;;;4980159;28;20202;-61
2022/05/24 11:39:42;;;;;;;1.95;0.35;;;;;;;;;;4980016;28;20279;-63
2022/05/24 11:42:24;;;;;;;0.10;0.10;;;;;;;;;;4979555;28;20681;-63
2022/05/24 11:44:52;;;;;;;0.30;0.30;;;;;;;;;;4979744;28;20210;-62
2022/05/24 11:47:37;;;;;;;0.47;0.10;;;;;;;;;;4979405;28;20312;-62
2022/05/24 11:50:07;;;;;;;0.20;0.20;;;;;;;;;;4977702;28;20264;-64
2022/05/24 11:52:45;;;;;;;0.85;0.38;;;;;;;;;;4979903;28;20206;-61
2022/05/24 11:55:32;;;;;;;0.35;0.20;;;;;;;;;;4976008;28;20207;-59
2022/05/24 11:58:06;;;;;;;0.63;0.63;;;;;;;;;;4978069;28;20681;-59
2022/05/24 12:00:34;;;;;;;0.98;0.30;;;;;;;;;;4979423;28;20214;-58
2022/05/24 12:08:38;;;;;;;4.47;1.00;;;;;;;;;;4979393;28;20209;-59
2022/05/24 12:11:11;;;;;;;0.22;0.22;;;;;;;;;;4977857;28;20261;-59
2022/05/24 12:13:54;;;;;;;0.30;0.30;;;;;;;;;;4979436;28;20253;-59
2022/05/24 12:16:35;;;;;;;0.10;0.10;;;;;;;;;;4977956;28;21039;-60
2022/05/24 12:19:04;;;;;;;0.20;0.20;;;;;;;;;;4979328;28;20645;-59
2022/05/24 12:21:43;;;;;;;0.20;0.20;;;;;;;;;;4979623;28;20209;-60
2022/05/24 12:24:32;;;;;;;0.10;0.10;;;;;;;;;;4987555;28;20202;-60
2022/05/24 12:27:21;;;;;;;0.25;0.25;;;;;;;;;;4981851;28;20597;-60
2022/05/24 12:29:51;;;;;;;0.28;0.28;;;;;;;;;;4988758;28;20307;-61
2022/05/24 12:32:18;;;;;;;0.75;0.20;;;;;;;;;;4987508;28;20672;-61
2022/05/24 12:34:45;;;;;;;0.20;0.20;;;;;;;;;;4988753;28;20634;-61
2022/05/24 12:37:19;;;;;;;0.20;0.20;;;;;;;;;;4988877;28;20206;-60
2022/05/24 12:40:01;;;;;;;0.20;0.20;;;;;;;;;;4977865;28;20289;-61
2022/05/24 12:42:28;;;;;;;0.40;0.40;;;;;;;;;;4980462;28;20210;-60
2022/05/24 12:44:55;;;;;;;0.30;0.30;;;;;;;;;;4979678;28;20552;-60
2022/05/24 12:47:22;;;;;;;0.32;0.28;;;;;;;;;;4980241;28;20206;-60
2022/05/24 12:49:54;;;;;;;0.47;0.20;;;;;;;;;;4969251;28;20214;-64
2022/05/24 12:52:42;;;;;;;0.98;0.20;;;;;;;;;;4971447;28;20560;-62
2022/05/24 12:55:54;;;;;;;0.20;0.20;;;;;;;;;;4985613;28;20265;-62
2022/05/24 12:58:12;;;;;;;0.20;0.20;;;;;;;;;;4982960;28;20210;-61
2022/05/24 13:00:40;;;;;;;0.30;0.30;;;;;;;;;;4988629;28;20221;-61
2022/05/24 13:03:08;;;;;;;0.20;0.20;;;;;;;;;;4987630;28;20301;-61
2022/05/24 13:05:38;;;;;;;0.10;0.10;;;;;;;;;;4969160;28;20301;-61
2022/05/24 13:08:05;;;;;;;0.10;0.10;;;;;;;;;;4976796;28;20284;-61
2022/05/24 13:10:36;;;;;;;0.10;0.10;;;;;;;;;;4988008;28;20209;-62
2022/05/24 13:13:09;;;;;;;0.30;0.30;;;;;;;;;;4984067;28;20213;-62
2022/05/24 13:15:36;;;;;;;0.30;0.30;;;;;;;;;;4988390;28;20600;-62
2022/05/24 13:18:08;;;;;;;0.20;0.20;;;;;;;;;;4981823;28;20206;-61
2022/05/24 13:20:37;;;;;;;0.10;0.10;;;;;;;;;;4976730;28;20264;-60
2022/05/24 13:23:06;;;;;;;0.22;0.20;;;;;;;;;;4979863;28;20232;-59
2022/05/24 13:25:47;;;;;;;0.30;0.30;;;;;;;;;;4982194;28;20237;-60
2022/05/24 13:28:32;;;;;;;0.43;0.20;;;;;;;;;;4975767;28;20206;-59
2022/05/24 13:33:45;;;;;;;0.20;0.20;;;;;;;;;;4978821;28;20658;-60
2022/05/24 13:36:20;;;;;;;0.20;0.20;;;;;;;;;;4981492;28;20633;-60
2022/05/24 13:38:48;;;;;;;0.20;0.20;;;;;;;;;;4984815;28;20687;-60
2022/05/24 13:41:26;;;;;;;0.20;0.20;;;;;;;;;;4984377;28;20612;-60
2022/05/24 13:44:07;;;;;;;0.20;0.20;;;;;;;;;;4988116;28;20272;-60
2022/05/24 13:46:47;;;;;;;0.55;0.20;;;;;;;;;;4987544;28;20204;-60
2022/05/24 13:49:26;;;;;;;0.22;0.22;;;;;;;;;;4988113;28;20695;-60
2022/05/24 13:51:53;;;;;;;0.20;0.20;;;;;;;;;;4988067;28;20742;-61
2022/05/24 13:54:32;;;;;;;0.13;0.13;;;;;;;;;;4987465;28;20348;-61
2022/05/24 13:57:01;;;;;;;2.22;0.22;;;;;;;;;;4987739;28;20707;-60
2022/05/24 13:59:28;;;;;;;0.90;0.10;;;;;;;;;;4973833;28;20225;-60
2022/05/24 14:01:56;;;;;;;0.93;0.30;;;;;;;;;;4967970;28;20688;-61
2022/05/24 14:04:26;;;;;;;0.20;0.20;;;;;;;;;;4969562;28;20206;-60
2022/05/24 14:06:55;;;;;;;0.10;0.10;;;;;;;;;;4987123;28;20305;-60
2022/05/24 14:09:23;;;;;;;0.43;0.20;;;;;;;;;;4988145;28;20233;-60
2022/05/24 14:11:52;;;;;;;0.10;0.10;;;;;;;;;;4987450;28;20301;-64
2022/05/24 14:14:21;;;;;;;1.95;0.20;;;;;;;;;;4987673;28;20233;-60
2022/05/24 14:16:48;;;;;;;0.20;0.20;;;;;;;;;;4987618;28;20300;-60
2022/05/24 14:19:16;;;;;;;0.30;0.30;;;;;;;;;;4987288;28;20264;-60
2022/05/24 14:22:04;;;;;;;0.38;0.30;;;;;;;;;;4987144;28;20589;-61
2022/05/24 14:24:38;;;;;;;1.13;0.20;;;;;;;;;;4986974;28;20212;-60
2022/05/24 14:27:06;;;;;;;0.10;0.10;;;;;;;;;;4986661;28;20730;-60
2022/05/24 14:29:34;;;;;;;0.20;0.20;;;;;;;;;;4986392;28;20789;-60
2022/05/24 14:32:02;;;;;;;0.30;0.28;;;;;;;;;;4986482;28;20210;-60
2022/05/24 14:34:30;;;;;;;0.28;0.20;;;;;;;;;;4986873;28;20225;-60
2022/05/24 14:36:57;;;;;;;0.20;0.20;;;;;;;;;;4987192;28;20218;-60
2022/05/24 14:39:25;;;;;;;0.20;0.20;;;;;;;;;;4986681;28;20218;-60
2022/05/24 14:41:52;;;;;;;0.30;0.20;;;;;;;;;;4987558;28;20216;-60
2022/05/24 14:44:20;;;;;;;0.32;0.20;;;;;;;;;;4989965;28;20271;-59
2022/05/24 14:46:48;;;;;;;0.20;0.20;;;;;;;;;;4990663;28;20218;-61
2022/05/24 14:49:15;;;;;;;0.95;0.30;;;;;;;;;;4990535;28;20649;-60
2022/05/24 14:51:45;;;;;;;0.75;0.20;;;;;;;;;;4982083;28;20670;-60
2022/05/24 14:54:21;;;;;;;1.08;0.40;;;;;;;;;;4990655;28;20707;-60
2022/05/24 14:56:48;;;;;;;0.30;0.30;;;;;;;;;;4980787;28;20283;-61
2022/05/24 14:59:16;;;;;;;0.75;0.20;;;;;;;;;;4990970;28;20272;-60
2022/05/24 15:01:44;;;;;;;0.10;0.10;;;;;;;;;;4990662;28;20216;-61
2022/05/24 15:04:13;;;;;;;0.20;0.20;;;;;;;;;;4990688;28;20780;-61
2022/05/24 15:06:43;;;;;;;0.57;0.20;;;;;;;;;;4981857;28;20246;-61
2022/05/24 15:17:33;;;;;;;0.13;0.13;;;;;;;;;;4989950;28;20263;-61
2022/05/24 15:20:01;;;;;;;1.27;0.22;;;;;;;;;;4988265;28;20922;-60
2022/05/24 15:22:28;;;;;;;0.20;0.20;;;;;;;;;;4971210;28;20217;-60
2022/05/24 15:24:55;;;;;;;0.20;0.20;;;;;;;;;;4979907;28;20264;-60
2022/05/24 15:27:23;;;;;;;0.52;0.28;;;;;;;;;;4989725;28;20237;-60
2022/05/24 15:29:50;;;;;;;0.20;0.20;;;;;;;;;;4989805;28;20238;-61
2022/05/24 15:32:17;;;;;;;0.30;0.20;;;;;;;;;;4990099;28;20217;-60
2022/05/24 15:34:44;;;;;;;2.45;0.28;;;;;;;;;;4971383;28;20238;-60
2022/05/24 15:37:12;;;;;;;0.55;0.20;;;;;;;;;;4980220;28;20209;-60
2022/05/24 15:39:39;;;;;;;0.20;0.20;;;;;;;;;;4989906;28;20210;-60
2022/05/24 15:42:24;;;;;;;0.50;0.50;;;;;;;;;;4981388;28;20206;-60
2022/05/24 15:44:52;;;;;;;0.43;0.43;;;;;;;;;;4988847;28;20210;-60
2022/05/24 15:47:19;;;;;;;0.20;0.20;;;;;;;;;;4983826;28;20261;-60
2022/05/24 15:49:46;;;;;;;0.10;0.10;;;;;;;;;;4970692;28;20603;-61
2022/05/24 15:52:20;;;;;;;0.55;0.20;;;;;;;;;;4970507;28;20211;-61
2022/05/24 15:54:47;;;;;;;0.30;0.30;;;;;;;;;;4968356;28;20222;-58